Time;durP1;ratioP1;P1;durP2;ratioP2;P2;SDS_P1;SDS_P2;PMS_P1;PMS_P2;Temp;Humidity;BMP_temperature;BMP_pressure;BME280_temperature;BME280_humidity;BME280_pressure;Samples;Min_cycle;Max_cycle;Signal;HPM_P1;HPM_P2
2022/06/22 00:01:20;;;;;;;9.85;6.43;;;15.60;99.90;;;;;;5095481;28;20038;-80
2022/06/22 00:03:57;;;;;;;8.70;6.72;;;15.50;99.90;;;;;;5092234;28;20036;-80
2022/06/22 00:06:40;;;;;;;9.27;6.75;;;15.50;99.90;;;;;;5092920;28;20039;-80
2022/06/22 00:09:06;;;;;;;7.57;6.50;;;15.50;99.90;;;;;;5095317;28;20074;-79
2022/06/22 00:11:35;;;;;;;8.38;6.45;;;15.50;99.90;;;;;;5095004;28;20020;-80
2022/06/22 00:14:02;;;;;;;9.35;7.70;;;15.40;99.90;;;;;;5094939;28;20028;-79
2022/06/22 00:16:30;;;;;;;11.65;6.88;;;15.50;99.90;;;;;;5095516;28;20020;-80
2022/06/22 00:18:57;;;;;;;11.48;7.43;;;15.50;99.90;;;;;;5094538;28;20499;-80
2022/06/22 00:21:41;;;;;;;8.10;7.35;;;15.40;99.90;;;;;;5094081;28;20032;-79
2022/06/22 00:24:33;;;;;;;10.95;6.90;;;15.40;99.90;;;;;;5093556;28;20499;-79
2022/06/22 00:27:14;;;;;;;6.68;6.07;;;15.30;99.90;;;;;;5092300;28;20108;-78
2022/06/22 00:29:39;;;;;;;8.50;7.13;;;15.30;99.90;;;;;;5093726;28;20028;-79
2022/06/22 00:32:24;;;;;;;7.55;6.80;;;15.30;99.90;;;;;;5095985;28;20475;-79
2022/06/22 00:34:49;;;;;;;10.10;6.63;;;15.40;99.90;;;;;;5096963;28;20028;-80
2022/06/22 00:37:29;;;;;;;9.02;7.05;;;15.40;99.90;;;;;;5097099;28;20024;-81
2022/06/22 00:40:00;;;;;;;10.40;6.90;;;15.30;99.90;;;;;;5096535;28;20024;-80
2022/06/22 00:42:43;;;;;;;9.63;6.65;;;15.20;99.90;;;;;;5096723;28;20032;-79
2022/06/22 00:45:21;;;;;;;8.75;7.60;;;15.20;99.90;;;;;;5096404;28;20029;-80
2022/06/22 00:47:59;;;;;;;9.45;7.28;;;15.20;99.90;;;;;;5096191;28;20028;-79
2022/06/22 00:50:41;;;;;;;10.57;7.63;;;15.20;99.90;;;;;;5099083;28;20028;-80
2022/06/22 00:53:13;;;;;;;13.07;8.40;;;15.10;99.90;;;;;;5098658;28;20107;-79
2022/06/22 00:55:59;;;;;;;13.40;7.60;;;15.20;99.90;;;;;;5098561;28;20559;-79
2022/06/22 00:58:53;;;;;;;8.55;7.85;;;15.10;99.90;;;;;;5096050;28;20028;-79
2022/06/22 01:01:31;;;;;;;13.80;8.70;;;15.00;99.90;;;;;;5093054;28;20101;-79
2022/06/22 01:04:08;;;;;;;12.00;9.02;;;14.90;99.90;;;;;;5096673;28;20522;-79
2022/06/22 01:06:50;;;;;;;12.52;8.68;;;14.90;99.90;;;;;;5099316;28;20169;-80
2022/06/22 01:09:36;;;;;;;8.75;7.75;;;14.90;99.90;;;;;;5096915;28;20103;-79
2022/06/22 01:12:17;;;;;;;10.27;8.95;;;14.80;99.90;;;;;;5096130;28;20456;-79
2022/06/22 01:15:04;;;;;;;9.35;8.48;;;14.90;99.90;;;;;;5095075;28;20036;-79
2022/06/22 01:17:35;;;;;;;14.35;8.98;;;14.90;99.90;;;;;;5096030;28;20028;-80
2022/06/22 01:20:25;;;;;;;12.35;8.50;;;14.80;99.90;;;;;;5096493;28;20539;-79
2022/06/22 01:23:10;;;;;;;12.77;9.07;;;14.80;99.90;;;;;;5094911;28;20035;-79
2022/06/22 01:25:56;;;;;;;14.15;9.52;;;14.80;99.90;;;;;;5095657;28;20123;-80
2022/06/22 01:28:24;;;;;;;9.43;8.52;;;14.80;99.90;;;;;;5095381;28;20028;-79
2022/06/22 01:30:55;;;;;;;13.45;9.52;;;14.70;99.90;;;;;;5094972;28;20070;-79
2022/06/22 01:33:28;;;;;;;9.13;7.78;;;14.60;99.90;;;;;;5095400;28;20031;-80
2022/06/22 01:35:59;;;;;;;12.50;8.32;;;14.60;99.90;;;;;;5094920;28;20111;-79
2022/06/22 01:38:30;;;;;;;8.88;7.97;;;14.60;99.90;;;;;;5095203;28;20444;-79
2022/06/22 01:41:33;;;;;;;9.32;8.38;;;14.50;99.90;;;;;;5095406;28;20405;-80
2022/06/22 01:44:15;;;;;;;10.35;8.15;;;14.50;99.90;;;;;;5094504;28;20064;-81
2022/06/22 01:46:50;;;;;;;7.95;7.25;;;14.50;99.90;;;;;;5095136;28;20036;-79
2022/06/22 01:49:24;;;;;;;15.52;8.73;;;14.40;99.90;;;;;;5094843;28;20516;-79
2022/06/22 01:52:00;;;;;;;10.75;8.32;;;14.40;99.90;;;;;;5094062;28;20472;-78
2022/06/22 01:54:33;;;;;;;10.13;8.32;;;14.40;99.90;;;;;;5094758;28;20058;-77
2022/06/22 01:57:11;;;;;;;10.65;8.32;;;14.40;99.90;;;;;;5094682;28;20085;-80
2022/06/22 02:00:13;;;;;;;9.48;8.02;;;14.40;99.90;;;;;;5095270;28;20024;-79
2022/06/22 02:02:53;;;;;;;10.93;8.45;;;14.40;99.90;;;;;;5084511;28;20051;-78
2022/06/22 02:05:29;;;;;;;9.52;8.63;;;14.30;99.90;;;;;;5095160;28;20031;-78
2022/06/22 02:08:13;;;;;;;13.63;9.73;;;14.30;99.90;;;;;;5096040;28;20498;-79
2022/06/22 02:10:49;;;;;;;12.98;8.85;;;14.30;99.90;;;;;;5095508;28;20024;-78
2022/06/22 02:13:41;;;;;;;12.18;9.32;;;14.30;99.90;;;;;;5094373;28;20029;-79
2022/06/22 02:16:15;;;;;;;14.40;9.50;;;14.30;99.90;;;;;;5095964;28;20020;-78
2022/06/22 02:19:06;;;;;;;12.07;9.75;;;14.40;99.90;;;;;;5096025;28;20494;-79
2022/06/22 02:21:43;;;;;;;16.27;10.05;;;14.40;99.90;;;;;;5096066;28;20028;-78
2022/06/22 02:24:33;;;;;;;11.82;9.00;;;14.30;99.90;;;;;;5096004;28;20024;-79
2022/06/22 02:27:05;;;;;;;;;;;14.20;99.90;;;;;;5094340;28;20114;-79
2022/06/22 02:29:39;;;;;;;14.40;10.00;;;14.20;99.90;;;;;;5094759;28;19915;-79
2022/06/22 02:32:14;;;;;;;12.73;10.15;;;14.20;99.90;;;;;;5094423;28;20024;-78
2022/06/22 02:34:42;;;;;;;13.40;11.13;;;14.20;99.90;;;;;;5095446;28;20028;-79
2022/06/22 02:37:10;;;;;;;14.65;10.85;;;14.10;99.90;;;;;;5095620;28;20039;-78
2022/06/22 02:39:42;;;;;;;11.88;10.68;;;14.00;99.90;;;;;;5093918;28;20085;-79
2022/06/22 02:44:52;;;;;;;12.70;10.25;;;13.90;99.90;;;;;;5093923;28;20120;-79
2022/06/22 02:47:47;;;;;;;17.60;10.90;;;13.90;99.90;;;;;;5093515;28;20527;-79
2022/06/22 02:50:38;;;;;;;16.45;10.45;;;13.90;99.90;;;;;;5094467;28;20058;-78
2022/06/22 02:53:17;;;;;;;14.02;10.93;;;13.90;99.90;;;;;;5093060;28;20024;-79
2022/06/22 02:55:43;;;;;;;15.00;11.10;;;13.90;99.90;;;;;;5093925;28;20074;-78
2022/06/22 02:58:23;;;;;;;14.48;11.00;;;13.90;99.90;;;;;;5093982;28;20376;-79
2022/06/22 03:00:49;;;;;;;15.10;10.80;;;13.90;99.90;;;;;;5093371;28;20048;-78
2022/06/22 03:03:16;;;;;;;13.07;10.65;;;13.90;99.90;;;;;;5093819;28;20024;-78
2022/06/22 03:05:46;;;;;;;16.13;10.95;;;13.80;99.90;;;;;;5093687;28;20047;-78
2022/06/22 03:08:14;;;;;;;15.00;10.50;;;13.90;99.90;;;;;;5093119;28;20464;-78
2022/06/22 03:11:08;;;;;;;15.45;10.98;;;13.90;99.90;;;;;;5093907;28;20032;-78
2022/06/22 03:13:38;;;;;;;13.13;10.77;;;13.80;99.90;;;;;;5090876;28;20384;-78
2022/06/22 03:16:05;;;;;;;12.25;10.02;;;13.80;99.90;;;;;;5092821;28;20064;-81
2022/06/22 03:18:38;;;;;;;15.10;9.93;;;13.80;99.90;;;;;;5093766;28;20192;-79
2022/06/22 03:21:08;;;;;;;11.80;10.35;;;13.80;99.90;;;;;;5093859;28;20475;-77
2022/06/22 03:23:59;;;;;;;11.43;10.25;;;13.70;99.90;;;;;;5093575;28;20057;-79
2022/06/22 03:26:36;;;;;;;12.40;10.40;;;13.80;99.90;;;;;;5065153;28;20040;-78
2022/06/22 03:29:27;;;;;;;14.50;10.50;;;13.80;99.90;;;;;;5095147;28;20027;-77
2022/06/22 03:32:14;;;;;;;;;;;13.80;99.90;;;;;;5097383;28;20425;-77
2022/06/22 03:34:44;;;;;;;15.77;10.65;;;13.80;99.90;;;;;;5093466;28;19913;-79
2022/06/22 03:37:33;;;;;;;12.82;10.45;;;13.80;99.90;;;;;;5093250;28;20384;-78
2022/06/22 03:40:05;;;;;;;13.25;10.98;;;13.70;99.90;;;;;;5094925;28;20096;-77
2022/06/22 03:43:04;;;;;;;16.13;11.52;;;13.70;99.90;;;;;;5096181;28;20353;-78
2022/06/22 03:45:38;;;;;;;15.05;11.13;;;13.70;99.90;;;;;;5094390;28;20032;-79
2022/06/22 03:48:10;;;;;;;14.15;11.10;;;13.70;99.90;;;;;;5093473;28;20498;-78
2022/06/22 03:50:50;;;;;;;16.05;10.55;;;13.60;99.90;;;;;;5092750;28;20111;-79
2022/06/22 03:53:29;;;;;;;16.02;10.45;;;13.60;99.90;;;;;;5093588;28;20460;-77
2022/06/22 03:55:59;;;;;;;13.25;10.45;;;13.50;99.90;;;;;;5094038;28;20056;-78
2022/06/22 03:58:25;;;;;;;15.93;10.73;;;13.50;99.90;;;;;;5093161;28;20024;-78
2022/06/22 04:00:52;;;;;;;12.23;10.98;;;13.50;99.90;;;;;;5094659;28;20066;-78
2022/06/22 04:03:19;;;;;;;17.13;11.18;;;13.50;99.90;;;;;;5094006;28;20040;-81
2022/06/22 04:05:56;;;;;;;12.00;10.70;;;13.60;99.90;;;;;;5095254;28;20064;-78
2022/06/22 04:08:32;;;;;;;15.23;11.07;;;13.60;99.90;;;;;;5098376;28;20024;-79
2022/06/22 04:11:43;;;;;;;13.07;11.75;;;13.70;99.90;;;;;;5097370;28;20028;-77
2022/06/22 04:14:30;;;;;;;12.65;11.38;;;13.60;99.90;;;;;;5064548;28;20476;-79
2022/06/22 04:17:02;;;;;;;13.77;12.38;;;13.80;99.90;;;;;;5097248;28;20020;-78
2022/06/22 04:19:33;;;;;;;18.30;13.48;;;13.80;99.90;;;;;;5096221;28;20028;-80
2022/06/22 04:22:11;;;;;;;16.83;12.38;;;13.90;99.90;;;;;;5097131;28;20112;-77
2022/06/22 04:24:54;;;;;;;15.35;11.95;;;13.80;99.90;;;;;;5097245;28;20110;-79
2022/06/22 04:27:32;;;;;;;19.00;12.25;;;13.90;99.90;;;;;;5097945;28;20119;-79
2022/06/22 04:30:06;;;;;;;19.52;12.57;;;13.90;99.90;;;;;;5098679;28;20024;-77
2022/06/22 04:32:43;;;;;;;18.35;13.07;;;13.90;99.90;;;;;;5096759;28;20044;-78
2022/06/22 04:35:24;;;;;;;13.65;11.93;;;13.90;99.90;;;;;;5097475;28;20055;-78
2022/06/22 04:38:05;;;;;;;18.27;11.18;;;14.00;99.90;;;;;;5096761;28;20066;-78
2022/06/22 04:40:45;;;;;;;19.75;12.48;;;14.00;99.90;;;;;;5096063;28;20506;-77
2022/06/22 04:43:12;;;;;;;16.25;11.75;;;14.00;99.90;;;;;;5096394;28;20035;-77
2022/06/22 04:45:41;;;;;;;16.38;12.80;;;14.00;99.90;;;;;;5095928;28;20032;-78
2022/06/22 04:48:18;;;;;;;16.92;11.90;;;14.00;99.90;;;;;;5097080;28;20024;-78
2022/06/22 04:50:46;;;;;;;13.80;11.80;;;14.00;99.90;;;;;;5096446;28;20028;-78
2022/06/22 04:53:31;;;;;;;19.13;12.75;;;14.10;99.90;;;;;;5096245;28;20123;-79
2022/06/22 04:56:00;;;;;;;17.15;10.98;;;14.10;99.90;;;;;;5097026;28;20028;-78
2022/06/22 04:58:54;;;;;;;14.38;11.82;;;14.10;99.90;;;;;;5096607;28;20069;-79
2022/06/22 05:01:33;;;;;;;17.10;12.38;;;14.10;99.90;;;;;;5095455;28;20127;-78
2022/06/22 05:04:04;;;;;;;14.27;11.73;;;14.20;99.90;;;;;;5096090;28;20103;-78
2022/06/22 05:06:48;;;;;;;;;;;14.30;99.90;;;;;;5096565;28;20032;-79
2022/06/22 05:09:31;;;;;;;15.93;11.30;;;14.40;99.90;;;;;;5095739;28;19991;-80
2022/06/22 05:11:57;;;;;;;15.25;12.20;;;14.50;99.90;;;;;;5095910;28;20021;-78
2022/06/22 05:14:31;;;;;;;16.33;11.43;;;14.60;99.90;;;;;;5095313;28;20031;-79
2022/06/22 05:17:01;;;;;;;20.23;12.10;;;14.60;99.90;;;;;;5095690;28;20113;-78
2022/06/22 05:19:51;;;;;;;16.27;10.70;;;14.70;99.90;;;;;;5096513;28;20389;-78
2022/06/22 05:22:18;;;;;;;16.45;10.75;;;14.80;99.90;;;;;;5095167;28;20475;-79
2022/06/22 05:24:48;;;;;;;13.63;10.52;;;14.90;99.90;;;;;;5096039;28;20434;-78
2022/06/22 05:27:23;;;;;;;12.70;11.00;;;14.90;99.90;;;;;;5096093;28;20045;-78
2022/06/22 05:29:57;;;;;;;12.70;10.13;;;14.90;99.90;;;;;;5095388;28;20028;-78
2022/06/22 05:32:45;;;;;;;12.10;10.57;;;14.90;99.90;;;;;;5096284;28;20028;-78
2022/06/22 05:35:19;;;;;;;17.63;10.32;;;15.10;99.90;;;;;;5095085;28;20502;-78
2022/06/22 05:37:50;;;;;;;13.68;10.32;;;15.10;99.90;;;;;;5096223;28;20479;-79
2022/06/22 05:40:18;;;;;;;13.07;10.80;;;15.20;99.90;;;;;;5096076;28;20025;-79
2022/06/22 05:42:44;;;;;;;13.88;9.70;;;15.30;99.90;;;;;;5096285;28;20028;-77
2022/06/22 05:45:33;;;;;;;12.48;10.20;;;15.30;99.90;;;;;;5097205;28;20027;-79
2022/06/22 05:47:59;;;;;;;20.73;10.57;;;15.40;99.90;;;;;;5095966;28;20070;-80
2022/06/22 05:51:02;;;;;;;12.20;9.65;;;15.50;99.90;;;;;;5077248;28;20433;-79
2022/06/22 05:53:43;;;;;;;13.95;9.50;;;15.50;99.90;;;;;;5080202;28;20056;-78
2022/06/22 05:56:39;;;;;;;14.15;9.55;;;15.50;99.90;;;;;;5096184;28;20103;-79
2022/06/22 05:59:12;;;;;;;10.68;9.25;;;15.60;99.90;;;;;;5088330;28;20107;-78
2022/06/22 06:01:52;;;;;;;11.25;10.05;;;15.70;99.90;;;;;;5094890;28;20089;-78
2022/06/22 06:04:48;;;;;;;9.45;8.60;;;15.80;99.90;;;;;;5095948;28;20535;-78
2022/06/22 06:07:38;;;;;;;13.07;9.25;;;15.80;99.90;;;;;;5097000;28;20044;-79
2022/06/22 06:10:13;;;;;;;10.20;8.82;;;15.90;99.90;;;;;;5094710;28;20020;-79
2022/06/22 06:12:43;;;;;;;11.60;9.25;;;15.90;99.90;;;;;;5095658;28;20062;-80
2022/06/22 06:15:11;;;;;;;13.80;9.98;;;16.10;99.90;;;;;;5095383;28;20472;-78
2022/06/22 06:17:41;;;;;;;10.88;9.20;;;16.10;99.90;;;;;;5095672;28;20036;-78
2022/06/22 06:20:31;;;;;;;10.52;8.85;;;16.10;99.90;;;;;;5104478;28;20024;-79
2022/06/22 06:23:04;;;;;;;13.75;8.88;;;16.30;99.90;;;;;;5094072;28;20124;-78
2022/06/22 06:28:26;;;;;;;10.18;7.60;;;16.50;99.90;;;;;;5093565;28;20087;-79
2022/06/22 06:31:00;;;;;;;10.00;8.13;;;16.60;99.90;;;;;;5095723;28;20029;-78
2022/06/22 06:33:38;;;;;;;11.77;8.55;;;16.60;99.90;;;;;;5093370;28;20031;-80
2022/06/22 06:36:26;;;;;;;14.70;8.18;;;16.60;99.90;;;;;;5095256;28;20482;-79
2022/06/22 06:38:57;;;;;;;10.48;7.97;;;16.60;99.90;;;;;;5093082;28;20024;-78
2022/06/22 06:41:43;;;;;;;11.70;8.40;;;16.70;99.90;;;;;;5092759;28;20055;-78
2022/06/22 06:44:10;;;;;;;11.85;8.70;;;16.90;99.90;;;;;;5092607;28;20030;-78
2022/06/22 06:46:45;;;;;;;11.55;8.32;;;17.00;99.90;;;;;;5094119;28;20039;-79
2022/06/22 06:49:28;;;;;;;12.27;7.68;;;17.10;99.90;;;;;;5093872;28;20024;-77
2022/06/22 06:52:04;;;;;;;8.90;8.00;;;17.20;99.90;;;;;;5094229;28;20035;-79
2022/06/22 06:54:33;;;;;;;9.20;7.30;;;17.30;99.90;;;;;;5093458;28;20047;-78
2022/06/22 06:57:07;;;;;;;8.32;6.70;;;17.40;99.90;;;;;;5094339;28;20024;-81
2022/06/22 06:59:34;;;;;;;9.27;6.43;;;17.40;99.90;;;;;;5094120;28;20103;-78
2022/06/22 07:02:05;;;;;;;7.47;6.75;;;17.40;99.90;;;;;;5094565;28;20044;-79
2022/06/22 07:04:34;;;;;;;6.80;5.63;;;17.50;99.90;;;;;;5094863;28;20031;-79
2022/06/22 07:07:12;;;;;;;6.35;5.38;;;17.60;99.90;;;;;;5093611;28;20143;-79
2022/06/22 07:09:40;;;;;;;5.68;5.18;;;17.60;99.90;;;;;;5093848;28;20020;-77
2022/06/22 07:12:26;;;;;;;8.13;5.07;;;17.80;99.90;;;;;;5093203;28;20054;-79
2022/06/22 07:14:53;;;;;;;5.18;4.25;;;17.90;99.90;;;;;;5093333;28;20425;-78
2022/06/22 07:17:21;;;;;;;8.68;5.03;;;18.00;99.90;;;;;;5094436;28;20141;-79
2022/06/22 07:20:01;;;;;;;8.88;4.07;;;18.00;99.90;;;;;;5095880;28;20024;-78
2022/06/22 07:22:42;;;;;;;6.35;3.83;;;18.00;99.90;;;;;;5094300;28;20020;-79
2022/06/22 07:25:14;;;;;;;;;;;18.10;99.90;;;;;;5095181;28;20043;-78
2022/06/22 07:27:55;;;;;;;6.30;4.20;;;18.10;99.90;;;;;;5093293;28;19933;-80
2022/06/22 07:30:31;;;;;;;4.78;3.72;;;18.20;99.90;;;;;;5094657;28;20024;-78
2022/06/22 07:33:21;;;;;;;7.28;3.85;;;18.30;99.90;;;;;;5095197;28;20020;-78
2022/06/22 07:36:13;;;;;;;7.00;3.78;;;18.40;99.90;;;;;;5097097;28;20016;-78
2022/06/22 07:38:56;;;;;;;4.07;3.70;;;18.40;99.90;;;;;;5094369;28;20384;-78
2022/06/22 07:41:23;;;;;;;4.53;3.35;;;18.50;99.90;;;;;;5096445;28;20032;-78
2022/06/22 07:44:19;;;;;;;5.13;2.83;;;18.50;99.90;;;;;;5100132;28;20017;-78
2022/06/22 07:46:47;;;;;;;4.50;3.00;;;18.50;99.90;;;;;;5100562;28;20036;-79
2022/06/22 07:49:21;;;;;;;4.63;2.92;;;18.60;99.90;;;;;;5098216;28;20043;-79
2022/06/22 07:51:56;;;;;;;5.05;2.72;;;18.60;99.90;;;;;;5098885;28;20020;-80
2022/06/22 07:54:32;;;;;;;4.20;3.70;;;18.70;99.90;;;;;;5098337;28;20388;-77
2022/06/22 07:57:12;;;;;;;6.28;3.08;;;18.80;99.70;;;;;;5098307;28;20107;-78
2022/06/22 07:59:53;;;;;;;4.43;3.33;;;18.90;99.60;;;;;;5098422;28;20058;-79
2022/06/22 08:02:24;;;;;;;9.35;3.28;;;18.90;99.90;;;;;;5098988;28;20054;-78
2022/06/22 08:04:55;;;;;;;4.22;2.63;;;18.90;99.10;;;;;;5098014;28;20059;-78
2022/06/22 08:07:37;;;;;;;5.97;3.13;;;19.00;98.70;;;;;;5098432;28;20043;-79
2022/06/22 08:10:23;;;;;;;7.13;3.13;;;19.10;98.70;;;;;;5097343;28;20032;-80
2022/06/22 08:12:57;;;;;;;8.02;2.85;;;19.10;98.60;;;;;;5098072;28;20046;-80
2022/06/22 08:15:23;;;;;;;7.30;3.00;;;19.20;98.00;;;;;;5097505;28;20020;-80
2022/06/22 08:17:52;;;;;;;4.85;2.70;;;19.30;98.50;;;;;;5097107;28;20020;-80
2022/06/22 08:20:24;;;;;;;6.40;2.70;;;19.30;98.60;;;;;;5098227;28;20020;-78
2022/06/22 08:22:51;;;;;;;9.63;3.13;;;19.40;98.20;;;;;;5098403;28;20035;-79
2022/06/22 08:25:20;;;;;;;7.85;3.92;;;19.50;98.10;;;;;;5099127;28;20032;-78
2022/06/22 08:27:46;;;;;;;7.20;2.78;;;19.50;97.70;;;;;;5099700;28;20028;-80
2022/06/22 08:30:14;;;;;;;4.05;2.90;;;19.60;97.60;;;;;;5097508;28;20107;-79
2022/06/22 08:32:59;;;;;;;5.75;2.97;;;19.70;97.80;;;;;;5097717;28;20058;-80
2022/06/22 08:35:29;;;;;;;5.10;2.33;;;19.70;98.40;;;;;;5097425;28;20028;-81
2022/06/22 08:38:03;;;;;;;6.15;2.92;;;19.70;98.40;;;;;;5098390;28;20118;-79
2022/06/22 08:41:02;;;;;;;4.72;3.80;;;19.80;97.80;;;;;;5098951;28;20024;-80
2022/06/22 08:43:33;;;;;;;5.60;3.40;;;19.90;97.30;;;;;;5104067;28;20016;-78
2022/06/22 08:46:30;;;;;;;4.80;3.35;;;19.90;97.30;;;;;;5098424;28;20044;-80
2022/06/22 08:49:21;;;;;;;4.00;3.47;;;20.00;97.90;;;;;;5097234;28;20030;-80
2022/06/22 08:52:08;;;;;;;3.50;3.03;;;19.90;98.00;;;;;;5096555;28;20031;-78
2022/06/22 08:55:15;;;;;;;6.40;3.55;;;20.00;97.00;;;;;;5100298;28;20057;-79
2022/06/22 08:58:00;;;;;;;8.82;3.65;;;20.00;97.00;;;;;;5076795;28;20032;-78
2022/06/22 09:00:43;;;;;;;3.90;2.80;;;20.10;96.90;;;;;;5055365;28;20032;-79
2022/06/22 09:03:20;;;;;;;4.15;2.70;;;20.10;96.90;;;;;;5097216;28;20131;-79
2022/06/22 09:06:04;;;;;;;4.53;3.10;;;20.10;96.90;;;;;;5097208;28;20012;-81
2022/06/22 09:08:50;;;;;;;4.93;2.97;;;20.20;96.60;;;;;;5097734;28;20024;-79
2022/06/22 09:11:33;;;;;;;5.40;3.28;;;20.30;95.00;;;;;;5097164;28;20031;-78
2022/06/22 09:14:33;;;;;;;7.40;2.85;;;20.30;95.60;;;;;;5096785;28;20032;-78
2022/06/22 09:17:35;;;;;;;7.35;3.25;;;20.30;95.90;;;;;;5097934;28;20040;-78
2022/06/22 09:20:20;;;;;;;4.72;2.65;;;20.40;95.00;;;;;;5097216;28;20059;-79
2022/06/22 09:22:56;;;;;;;4.45;2.80;;;20.50;95.00;;;;;;5098008;28;20016;-79
2022/06/22 09:25:40;;;;;;;5.90;3.20;;;20.60;95.20;;;;;;5096910;28;20480;-78
2022/06/22 09:28:21;;;;;;;3.83;3.13;;;20.60;95.30;;;;;;5098060;28;20024;-78
2022/06/22 09:30:56;;;;;;;4.53;3.35;;;20.70;95.30;;;;;;5096784;28;20028;-78
2022/06/22 09:33:40;;;;;;;9.27;2.92;;;20.80;95.30;;;;;;5096465;28;20031;-78
2022/06/22 09:36:11;;;;;;;3.90;2.58;;;20.90;94.10;;;;;;5097376;28;20032;-79
2022/06/22 09:38:49;;;;;;;3.80;3.15;;;20.90;93.90;;;;;;5097195;28;20016;-79
2022/06/22 09:41:31;;;;;;;5.78;2.70;;;21.00;94.00;;;;;;5095169;28;20050;-79
2022/06/22 09:43:59;;;;;;;5.10;2.53;;;21.00;93.30;;;;;;5096078;28;20050;-79
2022/06/22 09:46:58;;;;;;;4.60;2.53;;;21.10;92.60;;;;;;5095863;28;20115;-79
2022/06/22 09:49:38;;;;;;;4.45;2.42;;;21.10;92.70;;;;;;5095221;28;20065;-79
2022/06/22 09:52:43;;;;;;;4.00;2.97;;;21.10;92.80;;;;;;5095649;28;20028;-79
2022/06/22 09:58:55;;;;;;;2.90;2.40;;;21.20;92.90;;;;;;5074622;28;20545;-79
2022/06/22 10:01:30;;;;;;;3.92;2.47;;;21.30;91.60;;;;;;5095579;28;20065;-79
2022/06/22 10:04:14;;;;;;;3.05;2.75;;;21.40;90.90;;;;;;5094812;28;20023;-78
2022/06/22 10:07:04;;;;;;;5.32;2.42;;;21.40;90.80;;;;;;5095754;28;20066;-77
2022/06/22 10:09:42;;;;;;;3.78;2.30;;;21.50;91.30;;;;;;5095184;28;20024;-79
2022/06/22 10:12:33;;;;;;;3.22;1.92;;;21.60;90.00;;;;;;5095180;28;20658;-78
2022/06/22 10:15:20;;;;;;;3.78;2.58;;;21.50;90.20;;;;;;5095866;28;20028;-78
2022/06/22 10:18:09;;;;;;;3.10;2.80;;;21.60;90.30;;;;;;5094548;28;20131;-78
2022/06/22 10:20:48;;;;;;;3.70;2.78;;;21.70;91.10;;;;;;5094814;28;20025;-78
2022/06/22 10:23:29;;;;;;;3.78;2.45;;;21.70;91.60;;;;;;5094279;28;20456;-79
2022/06/22 10:26:40;;;;;;;3.17;2.22;;;21.70;91.00;;;;;;5094833;28;20068;-79
2022/06/22 10:29:16;;;;;;;3.33;2.47;;;21.70;91.30;;;;;;5095410;28;20400;-78
2022/06/22 10:32:24;;;;;;;7.25;2.22;;;21.70;91.20;;;;;;5094141;28;20020;-79
2022/06/22 10:35:02;;;;;;;3.80;2.17;;;21.90;91.40;;;;;;5067508;28;20111;-78
2022/06/22 10:37:46;;;;;;;3.03;2.30;;;22.10;90.40;;;;;;5094288;28;20032;-78
2022/06/22 10:47:21;;;;;;;2.70;1.95;;;22.20;89.20;;;;;;5012832;28;20046;-78
2022/06/22 10:49:59;;;;;;;5.88;1.90;;;22.20;90.20;;;;;;5014644;28;20029;-78
2022/06/22 10:52:50;;;;;;;1.98;1.73;;;22.30;88.90;;;;;;5072289;28;20046;-78
2022/06/22 10:55:24;;;;;;;4.28;2.40;;;22.30;89.00;;;;;;5095676;28;20026;-78
2022/06/22 10:58:19;;;;;;;2.50;1.95;;;22.50;88.60;;;;;;5096677;28;20472;-78
2022/06/22 11:01:12;;;;;;;2.35;1.70;;;22.60;86.10;;;;;;5079856;28;20059;-78
2022/06/22 11:04:08;;;;;;;2.90;1.48;;;22.60;86.30;;;;;;5094702;28;20048;-78
2022/06/22 11:06:42;;;;;;;3.55;1.98;;;22.60;86.80;;;;;;5094563;28;20149;-78
2022/06/22 11:09:30;;;;;;;2.40;2.13;;;22.60;84.90;;;;;;5095015;28;20047;-78
2022/06/22 11:12:13;;;;;;;4.78;2.00;;;22.60;85.50;;;;;;5094956;28;20024;-78
2022/06/22 11:15:20;;;;;;;6.65;2.33;;;22.60;85.00;;;;;;5094418;28;20024;-79
2022/06/22 11:18:04;;;;;;;3.17;2.28;;;22.70;86.00;;;;;;5095793;28;20383;-77
2022/06/22 11:21:05;;;;;;;2.55;1.95;;;22.80;87.10;;;;;;5098518;28;20035;-78
2022/06/22 11:24:05;;;;;;;1.63;1.45;;;22.90;86.20;;;;;;5094743;28;20032;-77
2022/06/22 11:32:34;;;;;;;4.20;2.28;;;23.20;85.50;;;;;;5097652;28;20027;-78
2022/06/22 11:35:06;;;;;;;6.28;2.60;;;23.20;85.00;;;;;;5098177;28;20024;-78
2022/06/22 11:37:56;;;;;;;4.25;2.40;;;23.20;85.30;;;;;;5095354;28;20072;-77
2022/06/22 11:40:30;;;;;;;4.70;2.38;;;23.10;85.70;;;;;;5094836;28;20023;-79
2022/06/22 11:43:19;;;;;;;4.95;2.42;;;23.10;85.90;;;;;;5095238;28;20095;-77
2022/06/22 11:46:18;;;;;;;3.05;1.88;;;23.20;86.20;;;;;;5093473;28;20024;-77
2022/06/22 11:49:10;;;;;;;2.42;1.70;;;23.20;87.10;;;;;;5095087;28;20491;-78
2022/06/22 11:52:01;;;;;;;2.80;2.30;;;23.30;87.50;;;;;;5094848;28;20024;-78
2022/06/22 11:54:45;;;;;;;;;;;23.40;85.60;;;;;;5094439;28;20028;-78
2022/06/22 11:57:10;;;;;;;3.58;2.05;;;23.50;85.50;;;;;;5094796;28;19904;-77
2022/06/22 11:59:47;;;;;;;1.85;1.35;;;23.60;85.40;;;;;;5095228;28;20376;-78
2022/06/22 12:02:28;;;;;;;4.28;2.20;;;23.60;86.10;;;;;;5094503;28;20048;-78
2022/06/22 12:05:14;;;;;;;5.38;1.95;;;23.70;84.00;;;;;;5095027;28;20108;-77
2022/06/22 12:07:48;;;;;;;2.72;2.17;;;23.80;84.40;;;;;;5094393;28;20040;-78
2022/06/22 12:10:36;;;;;;;2.33;1.85;;;23.80;83.40;;;;;;5094685;28;20093;-77
2022/06/22 12:13:26;;;;;;;4.15;2.20;;;23.90;84.60;;;;;;5094322;28;20066;-79
2022/06/22 12:16:05;;;;;;;7.13;2.00;;;24.10;82.70;;;;;;5094663;28;20475;-78
2022/06/22 12:18:36;;;;;;;2.50;1.70;;;24.10;83.40;;;;;;5094992;28;20020;-79
2022/06/22 12:21:22;;;;;;;3.60;1.88;;;24.20;83.20;;;;;;5094870;28;20047;-77
2022/06/22 12:23:48;;;;;;;4.72;1.70;;;24.30;82.10;;;;;;5094023;28;20024;-78
2022/06/22 12:26:35;;;;;;;2.55;1.52;;;24.30;82.40;;;;;;5095898;28;20130;-79
2022/06/22 12:29:34;;;;;;;2.00;1.33;;;24.40;83.00;;;;;;5097746;28;20051;-78
2022/06/22 12:32:13;;;;;;;4.37;1.77;;;24.60;81.90;;;;;;5098122;28;20020;-78
2022/06/22 12:34:50;;;;;;;2.60;1.70;;;24.80;79.80;;;;;;5098380;28;20041;-78
2022/06/22 12:37:30;;;;;;;5.20;1.60;;;24.90;79.90;;;;;;5097192;28;20476;-77
2022/06/22 12:40:01;;;;;;;3.75;1.40;;;25.00;79.40;;;;;;5097760;28;20468;-78
2022/06/22 12:42:37;;;;;;;2.08;1.67;;;25.10;77.70;;;;;;5098198;28;20158;-78
2022/06/22 12:45:30;;;;;;;5.13;2.13;;;25.20;77.60;;;;;;5097000;28;20040;-77
2022/06/22 12:48:17;;;;;;;5.97;2.58;;;25.20;76.90;;;;;;5096546;28;20106;-78
2022/06/22 12:51:01;;;;;;;2.80;1.63;;;25.20;77.20;;;;;;5097478;28;20052;-78
2022/06/22 12:53:41;;;;;;;5.53;1.73;;;25.20;77.10;;;;;;5097235;28;20520;-78
2022/06/22 12:56:34;;;;;;;1.75;1.25;;;25.30;77.30;;;;;;5097431;28;20061;-77
2022/06/22 12:59:07;;;;;;;1.77;1.30;;;25.50;76.80;;;;;;5096776;28;20051;-78
2022/06/22 13:01:33;;;;;;;3.17;1.63;;;25.60;76.00;;;;;;5097924;28;20044;-77
2022/06/22 13:04:23;;;;;;;3.35;1.50;;;25.70;74.50;;;;;;5097286;28;20047;-78
2022/06/22 13:06:54;;;;;;;;;;;25.90;73.60;;;;;;5096859;28;20039;-78
2022/06/22 13:09:21;;;;;;;2.75;1.48;;;26.00;72.90;;;;;;5096987;28;19904;-77
2022/06/22 13:11:48;;;;;;;1.77;1.27;;;26.00;72.70;;;;;;5096585;28;20028;-77
2022/06/22 13:14:47;;;;;;;3.67;1.10;;;25.90;71.90;;;;;;5095937;28;20471;-78
2022/06/22 13:17:36;;;;;;;2.13;1.48;;;26.00;73.00;;;;;;5096074;28;20098;-77
2022/06/22 13:20:49;;;;;;;1.80;1.25;;;26.20;72.70;;;;;;5059121;28;20409;-76
2022/06/22 13:23:32;;;;;;;2.42;1.40;;;26.50;73.10;;;;;;5051844;28;20059;-77
2022/06/22 13:26:13;;;;;;;6.13;1.63;;;26.60;72.00;;;;;;5096347;28;20035;-77
2022/06/22 13:29:33;;;;;;;1.60;1.40;;;26.70;69.00;;;;;;5096653;28;20024;-78
2022/06/22 13:32:04;;;;;;;8.38;1.60;;;26.70;69.30;;;;;;5096673;28;20111;-78
2022/06/22 13:34:44;;;;;;;5.28;1.75;;;26.80;69.40;;;;;;5096502;28;20051;-77
2022/06/22 13:37:21;;;;;;;;;;;27.00;69.10;;;;;;5097299;28;20020;-78
2022/06/22 13:40:10;;;;;;;3.50;1.70;;;27.20;68.50;;;;;;5096120;28;19907;-78
2022/06/22 13:42:42;;;;;;;1.65;1.38;;;27.20;68.10;;;;;;5096528;28;20035;-78
2022/06/22 13:45:42;;;;;;;2.30;1.30;;;27.30;68.60;;;;;;5096974;28;20028;-78
2022/06/22 13:48:18;;;;;;;1.73;1.63;;;27.20;67.70;;;;;;5095657;28;20062;-78
2022/06/22 13:50:55;;;;;;;2.17;1.63;;;27.30;68.80;;;;;;5096045;28;20020;-78
2022/06/22 13:53:28;;;;;;;2.83;1.25;;;27.40;69.00;;;;;;5096192;28;20372;-78
2022/06/22 13:56:13;;;;;;;2.22;1.30;;;27.60;69.20;;;;;;5096548;28;20016;-77
2022/06/22 13:58:45;;;;;;;3.42;1.30;;;27.70;68.30;;;;;;5097150;28;20024;-77
2022/06/22 14:01:18;;;;;;;4.00;1.23;;;27.50;67.20;;;;;;5095326;28;20052;-78
2022/06/22 14:04:15;;;;;;;2.85;1.52;;;27.40;67.00;;;;;;5096002;28;20061;-77
2022/06/22 14:06:53;;;;;;;2.42;1.20;;;27.40;67.90;;;;;;5097185;28;20036;-76
2022/06/22 14:09:28;;;;;;;5.60;1.38;;;27.50;68.60;;;;;;5095346;28;20024;-77